Montgomery, Kentucky
Current Conditions -  °F | °C
As of 12:58 PM on Saturday 25 Oct 2014 (Local Time) from KHOP Reporting Station
Scattered Clouds Scattered Clouds  
Wind Chill: 74°   Ceiling: Unl
Heat Index: 74°   Visibility: 10mi
Dew Point: 62°   Wind: 5mph
Humidity: 66%   Direction: NA
Pressure: 30.02"   Gusts: NA
Location:  36.8031°N, 87.8159°W
Report Text: KHOP 251758Z AUTO VRB04KT 10SM FEW055 SCT170 24/17 A3002 RMK AO2 SLP165 T02360169 10236 20119 58014
Loading
Personal Weather Stations






























Interactive Weather Map
Tropical Storm Tracking
New forecast layout! Learn more

10-Day Weather Forecast

Advertisements
Track Severe Weather on mobile